createdAt,value
2017-06-05T00:01:48.031Z,82.10
2017-06-05T00:04:22.680Z,82.50
2017-06-05T00:06:56.727Z,82.40
2017-06-05T00:09:31.114Z,82.80
2017-06-05T00:15:04.787Z,83.70
2017-06-05T00:17:38.644Z,84.10
2017-06-05T00:20:12.432Z,84.20
2017-06-05T00:22:46.407Z,85.10
2017-06-05T00:25:20.622Z,85.00
2017-06-05T00:27:54.773Z,85.80
2017-06-05T00:30:28.815Z,85.80
2017-06-05T00:33:00.184Z,86.50
2017-06-05T00:35:35.200Z,86.80
2017-06-05T00:38:10.306Z,87.50
2017-06-05T00:40:54.863Z,87.50
2017-06-05T00:43:40.001Z,88.00
2017-06-05T00:46:18.110Z,87.30
2017-06-05T00:48:52.156Z,85.50
2017-06-05T00:51:26.335Z,84.40
2017-06-05T00:54:10.767Z,84.30
2017-06-05T00:56:45.185Z,84.00
2017-06-05T00:59:19.620Z,84.10
2017-06-05T01:01:53.685Z,83.80
2017-06-05T01:04:25.007Z,83.60
2017-06-05T01:06:59.793Z,84.00
2017-06-05T01:09:33.863Z,84.20
2017-06-05T01:12:07.647Z,84.30
2017-06-05T01:14:41.702Z,84.30
2017-06-05T01:17:18.104Z,84.40
2017-06-05T01:19:52.176Z,84.60
2017-06-05T01:22:26.446Z,84.40
2017-06-05T01:25:04.527Z,84.30
2017-06-05T01:27:38.611Z,84.00
2017-06-05T01:30:12.583Z,84.70
2017-06-05T01:32:57.769Z,85.10
2017-06-05T01:35:31.871Z,85.20
2017-06-05T01:38:03.719Z,85.30
2017-06-05T01:40:37.644Z,85.70
2017-06-05T01:43:11.512Z,86.10
2017-06-05T01:45:45.507Z,85.80
2017-06-05T01:48:16.651Z,86.50
2017-06-05T01:50:44.752Z,86.20
2017-06-05T01:53:20.180Z,86.80
2017-06-05T01:56:04.733Z,86.30
2017-06-05T01:58:36.300Z,86.30
2017-06-05T02:01:10.961Z,86.40
2017-06-05T02:03:45.535Z,86.60
2017-06-05T02:06:19.389Z,87.30
2017-06-05T02:08:53.262Z,86.80
2017-06-05T02:11:29.255Z,86.70
2017-06-05T02:14:03.443Z,87.20
2017-06-05T02:16:38.027Z,87.40
2017-06-05T02:19:12.524Z,87.80
2017-06-05T02:21:51.015Z,87.90
2017-06-05T02:24:25.416Z,87.90
2017-06-05T02:26:57.226Z,88.00
2017-06-05T02:29:33.920Z,88.20
2017-06-05T02:32:07.755Z,88.40
2017-06-05T02:34:42.655Z,88.80
2017-06-05T02:37:16.903Z,89.00
2017-06-05T02:40:01.890Z,89.40
2017-06-05T02:42:38.465Z,89.70
2017-06-05T02:45:12.549Z,89.70
2017-06-05T02:47:47.643Z,89.70
2017-06-05T02:50:21.626Z,89.50
2017-06-05T02:52:56.764Z,89.40
2017-06-05T02:55:41.320Z,89.40
2017-06-05T02:58:15.284Z,89.70
2017-06-05T03:00:49.506Z,89.80
2017-06-05T03:03:24.277Z,89.30
2017-06-05T03:06:00.234Z,89.00
2017-06-05T03:08:32.097Z,88.60
2017-06-05T03:11:05.900Z,88.20
2017-06-05T03:13:42.113Z,88.00
2017-06-05T03:16:16.667Z,87.80
2017-06-05T03:19:01.107Z,87.80
2017-06-05T03:21:35.171Z,87.30
2017-06-05T03:24:09.020Z,87.10
2017-06-05T03:26:43.281Z,86.60
2017-06-05T03:29:17.494Z,86.50
2017-06-05T03:31:51.730Z,86.00
2017-06-05T03:34:23.218Z,84.60
2017-06-05T03:36:57.698Z,83.50
2017-06-05T03:39:35.970Z,82.40
2017-06-05T03:42:07.242Z,81.30
2017-06-05T03:44:42.005Z,80.10
2017-06-05T03:47:17.766Z,79.10
2017-06-05T03:50:02.380Z,77.60
2017-06-05T03:52:34.022Z,76.50
2017-06-05T03:55:07.871Z,76.20
2017-06-05T03:57:45.818Z,75.10
2017-06-05T04:00:19.692Z,73.80
2017-06-05T04:02:54.060Z,72.90
2017-06-05T04:05:28.030Z,71.90
2017-06-05T04:08:07.886Z,71.10
2017-06-05T04:10:41.731Z,70.00
2017-06-05T04:13:23.164Z,68.80
2017-06-05T04:15:59.120Z,67.80
2017-06-05T04:18:33.827Z,66.90
2017-06-05T04:21:09.241Z,64.70
2017-06-05T04:23:43.295Z,63.30
2017-06-05T04:26:21.066Z,61.50
2017-06-05T04:28:55.503Z,59.80
2017-06-05T04:31:29.609Z,59.00
2017-06-05T04:34:14.237Z,56.50
2017-06-05T04:36:59.150Z,55.40
2017-06-05T04:39:38.826Z,55.00
2017-06-05T04:42:13.090Z,54.10
2017-06-05T04:44:44.450Z,54.40
2017-06-05T04:47:29.770Z,54.00
2017-06-05T04:50:04.305Z,55.70
2017-06-05T04:52:38.442Z,56.30
2017-06-05T04:55:12.416Z,56.10
2017-06-05T04:57:46.610Z,56.20
2017-06-05T05:00:17.954Z,55.70
2017-06-05T05:02:51.830Z,54.90
2017-06-05T05:05:26.872Z,54.10
2017-06-05T05:08:01.326Z,53.90
2017-06-05T05:10:35.531Z,54.90
2017-06-05T05:13:21.691Z,54.70
2017-06-05T05:15:55.576Z,56.20
2017-06-05T05:18:27.047Z,58.80
2017-06-05T05:21:01.826Z,60.60
2017-06-05T05:23:35.898Z,62.00
2017-06-05T05:26:10.167Z,62.80
2017-06-05T05:28:44.315Z,63.80
2017-06-05T05:31:22.793Z,64.30
2017-06-05T05:34:00.820Z,65.40
2017-06-05T05:36:35.499Z,66.10
2017-06-05T05:39:07.120Z,66.60
2017-06-05T05:41:40.903Z,67.00
2017-06-05T05:44:16.159Z,67.00
2017-06-05T05:46:50.047Z,67.30
2017-06-05T05:49:26.938Z,68.00
2017-06-05T05:52:01.067Z,68.10
2017-06-05T05:54:35.345Z,68.20
2017-06-05T05:57:10.090Z,68.20
2017-06-05T05:59:44.138Z,69.20
2017-06-05T06:02:20.483Z,68.50
2017-06-05T06:05:07.375Z,67.90
2017-06-05T06:07:38.551Z,67.40
2017-06-05T06:10:12.734Z,67.30
2017-06-05T06:12:43.967Z,66.60
2017-06-05T06:15:15.906Z,66.50
2017-06-05T06:17:49.783Z,65.60
2017-06-05T06:20:24.664Z,65.50
2017-06-05T06:22:58.984Z,65.00
2017-06-05T06:25:44.210Z,64.50
2017-06-05T06:28:18.919Z,64.50
2017-06-05T06:30:53.281Z,65.10
2017-06-05T06:33:25.181Z,64.70
2017-06-05T06:35:59.917Z,64.80
2017-06-05T06:38:34.391Z,64.50
2017-06-05T06:41:08.346Z,63.80
2017-06-05T06:43:39.951Z,63.90
2017-06-05T06:46:24.289Z,64.00
2017-06-05T06:48:58.752Z,64.20
2017-06-05T06:51:32.495Z,63.90
2017-06-05T06:54:10.652Z,63.90
2017-06-05T06:56:45.321Z,63.80
2017-06-05T06:59:19.599Z,62.60
2017-06-05T07:01:51.047Z,62.70
2017-06-05T07:04:25.042Z,62.80
2017-06-05T07:06:56.796Z,61.90
2017-06-05T07:09:31.946Z,61.90
2017-06-05T07:12:05.895Z,62.20
2017-06-05T07:14:41.142Z,61.50
2017-06-05T07:17:14.991Z,61.00
2017-06-05T07:19:50.031Z,61.30
2017-06-05T07:22:21.381Z,61.50
2017-06-05T07:25:01.831Z,61.20
2017-06-05T07:27:36.304Z,60.90
2017-06-05T07:30:12.718Z,60.60
2017-06-05T07:32:49.279Z,60.90
2017-06-05T07:35:24.087Z,61.00
2017-06-05T07:37:58.668Z,60.30
2017-06-05T07:40:36.656Z,61.10
2017-06-05T07:43:10.772Z,60.30
2017-06-05T07:45:48.865Z,59.30
2017-06-05T07:48:22.832Z,58.50
2017-06-05T07:51:12.104Z,57.60
2017-06-05T07:53:59.861Z,57.00
2017-06-05T07:56:33.695Z,57.30
2017-06-05T07:59:04.822Z,57.30
2017-06-05T08:01:40.706Z,56.60
2017-06-05T08:04:14.725Z,54.50
2017-06-05T08:06:48.667Z,54.50
2017-06-05T08:09:26.483Z,55.60
2017-06-05T08:12:01.657Z,54.00
2017-06-05T08:14:36.900Z,53.70
2017-06-05T08:17:10.720Z,52.90
2017-06-05T08:19:45.303Z,53.70
2017-06-05T08:22:20.647Z,52.70
2017-06-05T08:24:55.409Z,52.80
2017-06-05T08:27:26.755Z,52.30
2017-06-05T08:30:02.562Z,52.50
2017-06-05T08:32:36.878Z,53.00
2017-06-05T08:35:21.808Z,53.00
2017-06-05T08:38:06.703Z,53.50
2017-06-05T08:40:41.274Z,53.40
2017-06-05T08:43:15.550Z,53.80
2017-06-05T08:45:53.345Z,52.70
2017-06-05T08:48:34.483Z,51.70
2017-06-05T08:51:09.826Z,52.60
2017-06-05T08:53:55.098Z,52.50
2017-06-05T08:56:29.931Z,52.00
2017-06-05T08:59:06.338Z,52.30
2017-06-05T09:01:35.435Z,52.80
2017-06-05T09:04:11.988Z,51.90
2017-06-05T09:06:46.335Z,51.60
2017-06-05T09:09:20.642Z,51.70
2017-06-05T09:11:54.862Z,51.80
2017-06-05T09:14:29.177Z,51.80
2017-06-05T09:17:03.033Z,51.00
2017-06-05T09:19:42.100Z,50.60
2017-06-05T09:22:16.298Z,49.90
2017-06-05T09:24:50.238Z,49.60
2017-06-05T09:27:27.279Z,47.40
2017-06-05T09:30:00.492Z,47.20
2017-06-05T09:32:35.154Z,47.50
2017-06-05T09:35:13.717Z,47.40
2017-06-05T09:37:51.654Z,47.80
2017-06-05T09:40:30.258Z,47.80
2017-06-05T09:43:04.135Z,47.20
2017-06-05T09:45:38.506Z,46.90
2017-06-05T09:48:12.262Z,47.00
2017-06-05T09:50:50.186Z,47.40
2017-06-05T09:53:24.116Z,47.90
2017-06-05T09:56:08.622Z,47.50
2017-06-05T09:58:53.782Z,47.20
2017-06-05T10:01:28.023Z,47.10
2017-06-05T10:04:13.083Z,46.90
2017-06-05T10:06:48.271Z,46.50
2017-06-05T10:09:22.550Z,46.80
2017-06-05T10:12:00.342Z,46.50
2017-06-05T10:14:38.523Z,46.50
2017-06-05T10:17:23.347Z,46.50
2017-06-05T10:22:51.856Z,47.60
2017-06-05T10:25:27.737Z,47.80
2017-06-05T10:27:59.014Z,48.10
2017-06-05T10:30:36.328Z,48.30
2017-06-05T10:33:07.846Z,48.10
2017-06-05T10:35:43.079Z,47.30
2017-06-05T10:38:17.774Z,46.10
2017-06-05T10:40:45.885Z,44.50
2017-06-05T10:43:33.347Z,44.30
2017-06-05T10:46:11.778Z,44.30
2017-06-05T10:48:45.796Z,44.80
2017-06-05T10:51:21.753Z,44.30
2017-06-05T10:53:55.894Z,43.60
2017-06-05T10:56:29.828Z,42.60
2017-06-05T10:59:14.641Z,43.10
2017-06-05T11:01:46.315Z,42.20
2017-06-05T11:04:21.103Z,42.80
2017-06-05T11:06:55.700Z,41.90
2017-06-05T11:09:29.741Z,42.80
2017-06-05T11:12:07.542Z,43.00
2017-06-05T11:14:43.782Z,43.40
2017-06-05T11:17:31.132Z,42.90
2017-06-05T11:20:14.001Z,42.60
2017-06-05T11:22:59.226Z,42.00
2017-06-05T11:25:35.861Z,42.10
2017-06-05T11:28:11.798Z,42.10
2017-06-05T11:30:49.515Z,41.50
2017-06-05T11:33:35.183Z,41.60
2017-06-05T11:36:09.690Z,42.00
2017-06-05T11:38:43.752Z,42.50
2017-06-05T11:41:17.625Z,41.20
2017-06-05T11:43:53.776Z,41.10
2017-06-05T11:46:29.871Z,40.40
2017-06-05T11:49:03.941Z,39.00
2017-06-05T11:51:40.344Z,39.90
2017-06-05T11:54:27.863Z,40.50
2017-06-05T11:57:02.126Z,40.60
2017-06-05T11:59:39.853Z,40.70
2017-06-05T12:02:11.974Z,39.60
2017-06-05T12:04:46.954Z,39.30
2017-06-05T12:07:20.735Z,40.60
2017-06-05T12:10:00.229Z,40.70
2017-06-05T12:12:30.166Z,41.00
2017-06-05T12:15:01.304Z,41.90
2017-06-05T12:17:33.891Z,41.80
2017-06-05T12:20:08.604Z,41.80
2017-06-05T12:22:44.862Z,42.00
2017-06-05T12:25:21.432Z,43.20
2017-06-05T12:27:55.965Z,43.50
2017-06-05T12:30:36.515Z,43.40
2017-06-05T12:33:14.851Z,41.30
2017-06-05T12:35:49.531Z,41.50
2017-06-05T12:38:25.901Z,41.30
2017-06-05T12:41:03.740Z,40.70
2017-06-05T12:43:40.069Z,40.10
2017-06-05T12:46:14.187Z,39.50
2017-06-05T12:48:48.090Z,39.40
2017-06-05T12:51:28.930Z,40.10
2017-06-05T12:54:03.298Z,40.50
2017-06-05T12:56:37.859Z,39.70
2017-06-05T12:59:24.671Z,39.50
2017-06-05T13:02:03.217Z,39.70
2017-06-05T13:04:41.413Z,40.00
2017-06-05T13:07:16.524Z,39.30
2017-06-05T13:09:57.846Z,38.30
2017-06-05T13:12:42.203Z,38.40
2017-06-05T13:15:28.212Z,39.10
2017-06-05T13:18:03.655Z,39.40
2017-06-05T13:20:44.478Z,38.60
2017-06-05T13:23:19.092Z,39.10
2017-06-05T13:26:03.659Z,38.70
2017-06-05T13:28:45.122Z,38.00
2017-06-05T13:31:30.242Z,38.70
2017-06-05T13:34:05.008Z,38.50
2017-06-05T13:36:37.234Z,38.50
2017-06-05T13:39:13.358Z,38.90
2017-06-05T13:41:57.106Z,38.10
2017-06-05T13:44:32.255Z,38.00
2017-06-05T13:47:19.779Z,37.50
2017-06-05T13:50:10.491Z,37.10
2017-06-05T13:52:48.689Z,37.20
2017-06-05T13:55:26.363Z,36.10
2017-06-05T13:58:00.704Z,34.70
2017-06-05T14:00:31.889Z,34.20
2017-06-05T14:03:19.932Z,35.70
2017-06-05T14:05:58.384Z,37.40
2017-06-05T14:08:32.464Z,37.50
2017-06-05T14:11:17.540Z,37.90
2017-06-05T14:13:55.374Z,37.40
2017-06-05T14:16:30.542Z,36.70
2017-06-05T14:19:03.188Z,36.30
2017-06-05T14:21:31.325Z,36.20
2017-06-05T14:24:06.937Z,35.30
2017-06-05T14:26:44.709Z,35.30
2017-06-05T14:29:19.091Z,36.00
2017-06-05T14:31:53.244Z,36.10
2017-06-05T14:34:27.192Z,35.70
2017-06-05T14:37:01.152Z,35.20
2017-06-05T14:39:36.546Z,34.40
2017-06-05T14:42:15.414Z,34.10
2017-06-05T14:44:50.396Z,34.50
2017-06-05T14:47:24.438Z,35.10
2017-06-05T14:50:00.342Z,35.70
2017-06-05T14:52:38.286Z,35.40
2017-06-05T14:55:21.665Z,34.50
2017-06-05T14:57:55.703Z,34.20
2017-06-05T15:00:30.229Z,34.60
2017-06-05T15:03:04.492Z,35.00
2017-06-05T15:05:37.024Z,34.30
2017-06-05T15:08:12.566Z,32.80
2017-06-05T15:10:44.123Z,32.70
2017-06-05T15:13:12.235Z,32.00
2017-06-05T15:15:46.226Z,31.70
2017-06-05T15:18:20.790Z,29.90
2017-06-05T15:20:52.329Z,30.40
2017-06-05T15:23:26.215Z,31.40
2017-06-05T15:25:57.694Z,31.70
2017-06-05T15:28:32.569Z,32.40
2017-06-05T15:34:23.494Z,31.90
2017-06-05T15:37:02.087Z,32.40
2017-06-05T15:42:32.297Z,32.70
2017-06-05T15:45:08.721Z,31.90
2017-06-05T15:47:54.102Z,31.40
2017-06-05T15:50:39.042Z,29.70
2017-06-05T15:53:30.675Z,29.50
2017-06-05T15:56:15.691Z,29.90
2017-06-05T15:58:58.758Z,30.40
2017-06-05T16:01:50.337Z,30.60
2017-06-05T16:04:30.946Z,31.40
2017-06-05T16:07:15.871Z,31.30
2017-06-05T16:09:52.230Z,31.60
2017-06-05T16:12:30.666Z,31.60
2017-06-05T16:15:15.645Z,31.10
2017-06-05T16:18:00.667Z,30.50
2017-06-05T16:20:50.619Z,30.90
2017-06-05T16:23:36.563Z,30.80
2017-06-05T16:29:23.487Z,29.90
2017-06-05T16:32:01.536Z,29.90
2017-06-05T16:34:35.529Z,29.80
2017-06-05T16:37:20.512Z,29.10
2017-06-05T16:40:04.983Z,28.70
2017-06-05T16:42:47.021Z,29.10
2017-06-05T16:45:34.935Z,28.10
2017-06-05T16:48:25.462Z,28.00
2017-06-05T16:51:06.302Z,28.20
2017-06-05T16:53:37.891Z,27.90
2017-06-05T16:56:24.405Z,28.10
2017-06-05T16:58:58.803Z,28.30
2017-06-05T17:01:56.842Z,27.30
2017-06-05T17:04:29.009Z,26.90
2017-06-05T17:07:16.044Z,26.60
2017-06-05T17:09:56.858Z,26.60
2017-06-05T17:15:35.665Z,26.80
2017-06-05T17:21:10.144Z,27.10
2017-06-05T17:23:52.506Z,27.60
2017-06-05T17:26:32.571Z,27.90
2017-06-05T17:31:59.732Z,27.50
2017-06-05T17:34:35.181Z,27.00
2017-06-05T17:37:11.671Z,26.90
2017-06-05T17:39:57.878Z,27.30
2017-06-05T17:42:43.153Z,27.50
2017-06-05T17:45:15.695Z,27.70
2017-06-05T17:47:54.193Z,27.50
2017-06-05T17:50:29.958Z,27.70
2017-06-05T17:53:06.231Z,27.80
2017-06-05T17:55:38.490Z,27.50
2017-06-05T17:58:19.520Z,27.50
2017-06-05T18:00:52.213Z,27.80
2017-06-05T18:03:23.534Z,27.90
2017-06-05T18:05:57.374Z,28.20
2017-06-05T18:08:32.545Z,28.30
2017-06-05T18:11:13.196Z,28.50
2017-06-05T18:13:50.021Z,28.40
2017-06-05T18:16:25.088Z,28.70
2017-06-05T18:19:00.303Z,29.10
2017-06-05T18:21:42.759Z,29.20
2017-06-05T18:24:20.706Z,28.70
2017-06-05T18:26:53.746Z,28.70
2017-06-05T18:29:36.618Z,28.80
2017-06-05T18:32:13.576Z,29.40
2017-06-05T18:34:47.467Z,29.30
2017-06-05T18:37:23.327Z,29.30
2017-06-05T18:39:57.905Z,29.10
2017-06-05T18:42:39.533Z,29.10
2017-06-05T18:45:20.888Z,29.20
2017-06-05T18:48:01.779Z,29.30
2017-06-05T18:50:48.608Z,29.40
2017-06-05T18:53:22.495Z,30.00
2017-06-05T18:55:56.903Z,30.70
2017-06-05T18:58:28.514Z,31.50
2017-06-05T19:01:02.284Z,32.00
2017-06-05T19:03:37.087Z,32.70
2017-06-05T19:06:09.706Z,33.10
2017-06-05T19:08:44.515Z,33.30
2017-06-05T19:11:25.289Z,33.50
2017-06-05T19:13:57.789Z,33.90
2017-06-05T19:16:35.903Z,34.40
2017-06-05T19:22:20.625Z,35.10
2017-06-05T19:24:56.088Z,36.60
2017-06-05T19:27:27.489Z,37.50
2017-06-05T19:30:01.888Z,38.20
2017-06-05T19:32:34.224Z,38.60
2017-06-05T19:35:06.134Z,39.10
2017-06-05T19:37:39.290Z,40.00
2017-06-05T19:40:15.134Z,40.00
2017-06-05T19:42:56.140Z,40.50
2017-06-05T19:45:31.223Z,41.00
2017-06-05T19:48:09.325Z,40.80
2017-06-05T19:50:41.462Z,41.00
2017-06-05T19:53:16.424Z,41.40
2017-06-05T19:56:01.891Z,42.20
2017-06-05T19:58:36.703Z,43.10
2017-06-05T20:01:11.251Z,43.20
2017-06-05T20:03:53.520Z,43.40
2017-06-05T20:06:28.690Z,43.70
2017-06-05T20:09:01.160Z,44.40
2017-06-05T20:11:35.294Z,44.50
2017-06-05T20:14:17.192Z,44.70
2017-06-05T20:16:56.522Z,45.20
2017-06-05T20:19:27.780Z,45.60
2017-06-05T20:22:01.808Z,45.80
2017-06-05T20:24:34.638Z,45.80
2017-06-05T20:27:20.802Z,45.60
2017-06-05T20:29:56.707Z,45.60
2017-06-05T20:35:44.259Z,46.70
2017-06-05T20:38:18.151Z,47.60
2017-06-05T20:41:03.940Z,48.40
2017-06-05T20:43:40.536Z,49.00
2017-06-05T20:46:16.805Z,49.70
2017-06-05T20:48:50.865Z,50.20
2017-06-05T20:51:29.240Z,51.00
2017-06-05T20:54:00.363Z,51.30
2017-06-05T20:56:39.084Z,50.80
2017-06-05T20:59:10.816Z,50.50
2017-06-05T21:01:50.904Z,50.80
2017-06-05T21:04:27.698Z,50.90
2017-06-05T21:07:01.444Z,50.80
2017-06-05T21:09:32.471Z,50.60
2017-06-05T21:12:07.460Z,51.60
2017-06-05T21:14:39.797Z,52.00
2017-06-05T21:17:15.367Z,52.40
2017-06-05T21:19:52.000Z,53.30
2017-06-05T21:22:25.105Z,53.50
2017-06-05T21:25:04.046Z,53.00
2017-06-05T21:27:37.108Z,53.20
2017-06-05T21:30:18.199Z,53.70
2017-06-05T21:32:53.009Z,53.80
2017-06-05T21:38:29.809Z,54.10
2017-06-05T21:41:03.843Z,54.70
2017-06-05T21:43:34.886Z,54.00
2017-06-05T21:46:08.733Z,54.40
2017-06-05T21:48:43.280Z,54.90
2017-06-05T21:51:17.938Z,54.80
2017-06-05T21:53:53.883Z,55.40
2017-06-05T21:56:27.907Z,55.50
2017-06-05T21:59:04.020Z,55.80
2017-06-05T22:01:38.079Z,55.80
2017-06-05T22:04:13.647Z,55.80
2017-06-05T22:06:55.712Z,56.90
2017-06-05T22:09:32.049Z,56.40
2017-06-05T22:12:07.010Z,56.80
2017-06-05T22:14:36.643Z,56.90
2017-06-05T22:17:10.522Z,56.90
2017-06-05T22:19:44.307Z,57.90
2017-06-05T22:25:12.135Z,59.50
2017-06-05T22:27:46.505Z,59.80
2017-06-05T22:30:20.643Z,60.20
2017-06-05T22:32:55.492Z,60.20
2017-06-05T22:35:29.474Z,61.40
2017-06-05T22:38:03.505Z,62.10
2017-06-05T22:40:38.008Z,62.30
2017-06-05T22:43:13.226Z,62.80
2017-06-05T22:45:56.179Z,62.80
2017-06-05T22:48:30.235Z,63.00
2017-06-05T22:51:04.203Z,63.40
2017-06-05T22:53:40.029Z,63.40
2017-06-05T22:56:11.557Z,64.10
2017-06-05T22:58:45.310Z,64.50
2017-06-05T23:01:16.668Z,65.00
2017-06-05T23:03:51.331Z,65.50
2017-06-05T23:06:25.314Z,65.80
2017-06-05T23:08:59.452Z,66.10
2017-06-05T23:11:33.722Z,66.90
2017-06-05T23:14:07.767Z,67.50
2017-06-05T23:16:42.020Z,67.90
2017-06-05T23:19:16.255Z,68.10
2017-06-05T23:21:50.318Z,68.30
2017-06-05T23:24:24.442Z,68.90
2017-06-05T23:26:59.537Z,69.60
2017-06-05T23:29:33.379Z,70.10
2017-06-05T23:32:07.997Z,70.80
2017-06-05T23:35:22.425Z,71.00
2017-06-05T23:37:50.539Z,71.90
2017-06-05T23:40:19.403Z,72.50
2017-06-05T23:42:47.513Z,72.40
2017-06-05T23:45:15.645Z,72.80
2017-06-05T23:47:43.761Z,73.10
2017-06-05T23:50:11.886Z,73.60
2017-06-05T23:52:39.983Z,74.00
2017-06-05T23:55:08.872Z,74.80
2017-06-05T23:57:37.036Z,74.80
